createdAt,value
2019-04-10T00:00:41.282Z,5.63
2019-04-10T00:02:26.558Z,5.60
2019-04-10T00:04:08.122Z,5.58
2019-04-10T00:05:50.478Z,5.56
2019-04-10T00:07:35.997Z,5.53
2019-04-10T00:09:19.186Z,5.52
2019-04-10T00:11:02.691Z,5.50
2019-04-10T00:12:52.161Z,5.51
2019-04-10T00:14:36.610Z,5.51
2019-04-10T00:16:22.407Z,5.54
2019-04-10T00:18:03.713Z,5.55
2019-04-10T00:19:55.968Z,5.54
2019-04-10T00:21:37.635Z,5.54
2019-04-10T00:23:17.363Z,5.51
2019-04-10T00:24:57.119Z,5.48
2019-04-10T00:26:35.422Z,5.46
2019-04-10T00:28:15.045Z,5.45
2019-04-10T00:29:54.420Z,5.47
2019-04-10T00:31:34.022Z,5.44
2019-04-10T00:33:12.496Z,5.43
2019-04-10T00:34:50.764Z,5.41
2019-04-10T00:36:29.155Z,5.40
2019-04-10T00:38:09.291Z,5.38
2019-04-10T00:39:48.764Z,5.36
2019-04-10T00:41:28.229Z,5.35
2019-04-10T00:43:08.618Z,5.35
2019-04-10T00:44:48.110Z,5.33
2019-04-10T00:46:26.741Z,5.29
2019-04-10T00:48:07.790Z,5.28
2019-04-10T00:49:48.147Z,5.26
2019-04-10T00:51:27.739Z,5.25
2019-04-10T00:53:08.546Z,5.24
2019-04-10T00:54:46.953Z,5.21
2019-04-10T00:56:26.382Z,5.21
2019-04-10T00:58:08.127Z,5.21
2019-04-10T00:59:48.466Z,5.23
2019-04-10T01:01:31.982Z,5.20
2019-04-10T01:03:40.082Z,5.21
2019-04-10T01:05:19.596Z,5.21
2019-04-10T01:07:02.184Z,5.20
2019-04-10T01:08:46.567Z,5.22
2019-04-10T01:10:28.402Z,5.24
2019-04-10T01:12:09.841Z,5.22
2019-04-10T01:13:50.331Z,5.22
2019-04-10T01:15:30.847Z,5.22
2019-04-10T01:17:10.460Z,5.23
2019-04-10T01:18:51.264Z,5.23
2019-04-10T01:20:31.339Z,5.22
2019-04-10T01:22:11.075Z,5.23
2019-04-10T01:23:50.528Z,5.20
2019-04-10T01:25:30.490Z,5.21
2019-04-10T01:27:10.413Z,5.21
2019-04-10T01:28:49.758Z,5.21
2019-04-10T01:30:30.501Z,5.20
2019-04-10T01:32:12.016Z,5.19
2019-04-10T01:33:51.161Z,5.18
2019-04-10T01:35:30.427Z,5.19
2019-04-10T01:37:10.248Z,5.17
2019-04-10T01:38:49.797Z,5.13
2019-04-10T01:40:47.625Z,5.11
2019-04-10T01:42:28.293Z,5.09
2019-04-10T01:44:07.989Z,5.08
2019-04-10T01:45:47.464Z,5.05
2019-04-10T01:47:26.903Z,5.06
2019-04-10T01:49:05.311Z,5.06
2019-04-10T01:50:44.495Z,5.06
2019-04-10T01:52:23.585Z,5.05
2019-04-10T01:54:03.841Z,5.04
2019-04-10T01:55:43.080Z,5.03
2019-04-10T01:57:25.188Z,5.01
2019-04-10T01:59:04.376Z,5.01
2019-04-10T02:00:50.657Z,5.00
2019-04-10T02:02:35.371Z,5.01
2019-04-10T02:04:14.894Z,4.97
2019-04-10T02:05:54.702Z,4.94
2019-04-10T02:07:34.197Z,4.95
2019-04-10T02:09:13.094Z,4.93
2019-04-10T02:10:52.570Z,4.93
2019-04-10T02:12:31.741Z,4.89
2019-04-10T02:14:10.619Z,4.90
2019-04-10T02:15:48.953Z,4.86
2019-04-10T02:17:30.842Z,4.86
2019-04-10T02:19:10.152Z,4.85
2019-04-10T02:20:49.913Z,4.83
2019-04-10T02:22:28.759Z,4.83
2019-04-10T02:24:09.861Z,4.81
2019-04-10T02:25:49.395Z,4.77
2019-04-10T02:27:28.713Z,4.77
2019-04-10T02:29:09.246Z,4.76
2019-04-10T02:30:50.134Z,4.79
2019-04-10T02:32:30.002Z,4.75
2019-04-10T02:34:09.426Z,4.73
2019-04-10T02:35:49.225Z,4.72
2019-04-10T02:37:28.478Z,4.72
2019-04-10T02:39:19.454Z,4.71
2019-04-10T02:40:50.060Z,4.65
2019-04-10T02:42:28.395Z,4.64
2019-04-10T02:44:08.064Z,4.61
2019-04-10T02:45:49.382Z,4.60
2019-04-10T02:47:28.801Z,4.57
2019-04-10T02:49:08.327Z,4.57
2019-04-10T02:50:47.178Z,4.58
2019-04-10T02:52:25.321Z,4.56
2019-04-10T02:54:05.594Z,4.58
2019-04-10T02:55:47.366Z,4.55
2019-04-10T02:57:27.617Z,4.55
2019-04-10T02:59:07.425Z,4.56
2019-04-10T03:00:48.698Z,4.56
2019-04-10T03:02:33.454Z,4.56
2019-04-10T03:04:13.423Z,4.54
2019-04-10T03:05:56.662Z,4.55
2019-04-10T03:07:35.983Z,4.53
2019-04-10T03:09:31.844Z,4.54
2019-04-10T03:11:03.568Z,4.55
2019-04-10T03:12:38.985Z,4.53
2019-04-10T03:14:21.026Z,4.56
2019-04-10T03:16:00.805Z,4.59
2019-04-10T03:17:42.066Z,4.61
2019-04-10T03:19:22.307Z,4.64
2019-04-10T03:21:02.734Z,4.67
2019-04-10T03:22:43.037Z,4.70
2019-04-10T03:24:23.216Z,4.70
2019-04-10T03:26:03.517Z,4.74
2019-04-10T03:27:43.100Z,4.75
2019-04-10T03:29:24.017Z,4.80
2019-04-10T03:31:05.366Z,4.80
2019-04-10T03:32:52.936Z,4.85
2019-04-10T03:34:34.246Z,4.84
2019-04-10T03:36:13.554Z,4.89
2019-04-10T03:37:52.960Z,4.95
2019-04-10T03:39:35.528Z,5.00
2019-04-10T03:41:13.751Z,5.07
2019-04-10T03:42:53.131Z,5.18
2019-04-10T03:44:33.064Z,5.28
2019-04-10T03:46:13.005Z,5.37
2019-04-10T03:48:09.481Z,5.44
2019-04-10T03:49:58.264Z,5.51
2019-04-10T04:00:47.867Z,6.03
2019-04-10T04:02:34.642Z,6.21
2019-04-10T04:04:13.864Z,6.35
2019-04-10T04:05:57.163Z,6.49
2019-04-10T04:07:57.103Z,6.67
2019-04-10T04:09:43.992Z,6.86
2019-04-10T04:11:32.091Z,7.00
2019-04-10T04:13:19.473Z,7.18
2019-04-10T04:15:03.645Z,7.37
2019-04-10T04:16:42.287Z,7.57
2019-04-10T04:18:22.638Z,7.76
2019-04-10T04:20:00.069Z,7.95
2019-04-10T04:21:39.618Z,8.13
2019-04-10T04:23:17.915Z,8.35
2019-04-10T04:24:56.030Z,8.48
2019-04-10T04:26:40.893Z,8.65
2019-04-10T04:28:20.170Z,8.91
2019-04-10T04:29:59.546Z,9.14
2019-04-10T04:31:38.148Z,9.40
2019-04-10T04:33:17.717Z,9.61
2019-04-10T04:34:57.573Z,9.78
2019-04-10T04:36:37.389Z,9.82
2019-04-10T04:38:16.179Z,9.90
2019-04-10T04:39:56.299Z,10.02
2019-04-10T04:41:36.077Z,10.14
2019-04-10T04:43:15.129Z,10.49
2019-04-10T04:44:54.234Z,10.58
2019-04-10T04:46:34.607Z,10.76
2019-04-10T04:48:12.575Z,10.77
2019-04-10T04:49:52.287Z,10.89
2019-04-10T04:51:33.071Z,11.07
2019-04-10T04:53:11.480Z,11.12
2019-04-10T04:54:51.199Z,11.19
2019-04-10T04:56:31.702Z,11.30
2019-04-10T04:58:09.907Z,11.40
2019-04-10T04:59:48.464Z,11.56
2019-04-10T05:01:27.497Z,11.75
2019-04-10T05:03:07.764Z,11.89
2019-04-10T05:04:46.105Z,11.96
2019-04-10T05:06:26.471Z,12.03
2019-04-10T05:08:05.837Z,12.11
2019-04-10T05:09:46.035Z,12.24
2019-04-10T05:11:24.511Z,12.39
2019-04-10T05:13:02.379Z,12.47
2019-04-10T05:14:40.186Z,12.52
2019-04-10T05:16:20.670Z,12.59
2019-04-10T05:17:58.219Z,12.63
2019-04-10T05:19:36.201Z,12.64
2019-04-10T05:21:14.307Z,12.76
2019-04-10T05:22:54.791Z,12.82
2019-04-10T05:24:33.244Z,12.90
2019-04-10T05:26:11.678Z,13.02
2019-04-10T05:27:51.524Z,13.25
2019-04-10T05:29:31.174Z,13.22
2019-04-10T05:31:10.835Z,13.36
2019-04-10T05:32:49.344Z,13.21
2019-04-10T05:34:29.530Z,13.46
2019-04-10T05:36:07.563Z,13.58
2019-04-10T05:37:45.864Z,13.63
2019-04-10T05:39:24.480Z,13.83
2019-04-10T05:41:06.945Z,13.91
2019-04-10T05:42:45.090Z,14.03
2019-04-10T05:44:25.545Z,14.25
2019-04-10T05:46:04.915Z,14.40
2019-04-10T05:47:42.954Z,14.55
2019-04-10T05:49:20.695Z,14.76
2019-04-10T05:51:03.078Z,14.73
2019-04-10T05:52:39.592Z,14.73
2019-04-10T05:54:17.224Z,14.98
2019-04-10T05:55:55.919Z,15.10
2019-04-10T05:57:34.913Z,15.18
2019-04-10T06:52:49.466Z,18.63
2019-04-10T06:54:31.006Z,18.65
2019-04-10T06:56:09.817Z,18.73
2019-04-10T06:57:55.833Z,18.89
2019-04-10T06:59:30.550Z,18.92
2019-04-10T07:01:12.592Z,19.07
2019-04-10T07:03:03.941Z,19.08
2019-04-10T07:05:08.563Z,19.32
2019-04-10T07:06:58.058Z,18.97
2019-04-10T07:08:29.735Z,19.37
2019-04-10T07:10:21.441Z,19.63
2019-04-10T07:11:59.307Z,19.85
2019-04-10T07:13:37.645Z,19.53
2019-04-10T07:15:22.106Z,19.88
2019-04-10T07:17:00.680Z,19.89
2019-04-10T07:18:38.276Z,20.06
2019-04-10T07:20:19.402Z,20.26
2019-04-10T07:22:00.138Z,20.26
2019-04-10T07:24:01.200Z,20.15
2019-04-10T07:25:44.605Z,20.15
2019-04-10T07:27:27.873Z,20.66
2019-04-10T07:29:06.731Z,20.98
2019-04-10T07:30:47.809Z,20.39
2019-04-10T07:32:59.449Z,20.49
2019-04-10T07:34:38.337Z,20.76
2019-04-10T07:36:16.143Z,20.48
2019-04-10T07:38:01.397Z,20.53
2019-04-10T07:39:44.742Z,20.40
2019-04-10T07:41:26.414Z,20.67
2019-04-10T07:43:04.219Z,20.90
2019-04-10T07:44:56.241Z,20.91
2019-04-10T07:46:43.372Z,20.98
2019-04-10T07:48:35.812Z,20.96
2019-04-10T07:50:24.521Z,21.35
2019-04-10T07:52:05.328Z,22.51
2019-04-10T07:53:44.013Z,22.10
2019-04-10T07:55:23.574Z,22.57
2019-04-10T07:57:02.757Z,22.66
2019-04-10T07:58:46.073Z,23.24
2019-04-10T08:00:25.313Z,23.76
2019-04-10T08:02:07.214Z,24.05
2019-04-10T08:03:43.870Z,23.94
2019-04-10T08:05:23.741Z,24.25
2019-04-10T08:07:07.210Z,23.91
2019-04-10T08:08:44.853Z,23.65
2019-04-10T08:10:30.678Z,23.64
2019-04-10T08:12:17.289Z,23.69
2019-04-10T08:13:56.124Z,23.78
2019-04-10T08:15:34.126Z,23.56
2019-04-10T08:17:12.694Z,24.50
2019-04-10T08:18:54.327Z,24.88
2019-04-10T08:20:32.938Z,26.17
2019-04-10T08:22:12.383Z,27.51
2019-04-10T08:23:52.943Z,27.71
2019-04-10T08:25:36.392Z,27.81
2019-04-10T08:27:14.902Z,28.12
2019-04-10T08:28:54.931Z,29.40
2019-04-10T08:30:32.446Z,29.38
2019-04-10T08:32:12.016Z,30.85
2019-04-10T08:33:54.683Z,31.03
2019-04-10T08:35:36.146Z,31.56
2019-04-10T08:37:26.888Z,31.81
2019-04-10T08:39:11.116Z,32.05
2019-04-10T08:40:48.531Z,31.56
2019-04-10T08:42:27.396Z,31.91
2019-04-10T08:44:06.471Z,30.65
2019-04-10T08:46:05.357Z,31.37
2019-04-10T08:47:47.079Z,32.52
2019-04-10T08:49:32.649Z,32.99
2019-04-10T08:51:11.010Z,32.42
2019-04-10T08:52:53.562Z,31.62
2019-04-10T08:54:32.995Z,30.65
2019-04-10T08:56:26.280Z,31.30
2019-04-10T08:58:08.676Z,30.97
2019-04-10T09:00:00.607Z,30.72
2019-04-10T09:01:45.609Z,31.40
2019-04-10T09:03:25.100Z,31.22
2019-04-10T09:05:09.275Z,29.28
2019-04-10T09:06:49.396Z,28.24
2019-04-10T09:08:28.799Z,28.41
2019-04-10T09:10:08.155Z,29.20
2019-04-10T09:11:46.170Z,27.51
2019-04-10T09:13:24.311Z,28.36
2019-04-10T09:15:03.771Z,30.22
2019-04-10T09:16:42.727Z,31.24
2019-04-10T09:18:21.057Z,29.98
2019-04-10T09:19:58.989Z,28.26
2019-04-10T09:21:38.877Z,27.65
2019-04-10T09:23:25.191Z,28.56
2019-04-10T09:24:58.505Z,28.05
2019-04-10T09:26:36.226Z,28.65
2019-04-10T09:28:14.534Z,30.53
2019-04-10T09:29:52.723Z,29.64
2019-04-10T09:31:31.520Z,29.84
2019-04-10T09:33:21.214Z,30.82
2019-04-10T09:34:49.877Z,30.00
2019-04-10T09:36:30.138Z,31.49
2019-04-10T09:38:07.978Z,32.16
2019-04-10T09:39:51.930Z,33.19
2019-04-10T09:41:32.762Z,29.88
2019-04-10T09:43:15.721Z,28.74
2019-04-10T09:45:07.304Z,29.08
2019-04-10T09:46:58.578Z,29.27
2019-04-10T09:48:48.433Z,30.51
2019-04-10T09:50:27.581Z,31.41
2019-04-10T09:52:05.309Z,30.95
2019-04-10T09:53:51.106Z,29.86
2019-04-10T09:55:40.489Z,29.17
2019-04-10T09:57:29.176Z,31.11
2019-04-10T09:59:10.383Z,32.37
2019-04-10T10:00:49.194Z,32.27
2019-04-10T10:02:47.608Z,31.67
2019-04-10T10:04:31.261Z,30.65
2019-04-10T10:06:27.144Z,29.96
2019-04-10T10:08:02.891Z,30.29
2019-04-10T10:09:43.136Z,29.61
2019-04-10T10:11:22.626Z,27.66
2019-04-10T10:13:01.244Z,26.98
2019-04-10T10:14:42.252Z,26.03
2019-04-10T10:16:23.825Z,25.83
2019-04-10T10:18:05.493Z,25.69
2019-04-10T10:19:46.047Z,25.56
2019-04-10T10:21:28.352Z,25.09
2019-04-10T10:23:06.973Z,25.24
2019-04-10T10:24:46.826Z,25.73
2019-04-10T10:26:28.171Z,24.94
2019-04-10T10:28:09.090Z,24.52
2019-04-10T10:29:48.173Z,25.10
2019-04-10T10:31:26.336Z,24.41
2019-04-10T10:33:07.763Z,24.65
2019-04-10T10:34:46.983Z,24.78
2019-04-10T10:36:36.652Z,25.40
2019-04-10T10:38:11.321Z,25.27
2019-04-10T10:39:50.664Z,25.25
2019-04-10T10:41:28.355Z,24.76
2019-04-10T10:43:08.608Z,25.15
2019-04-10T10:44:50.036Z,25.09
2019-04-10T10:46:30.417Z,25.05
2019-04-10T10:48:12.329Z,25.06
2019-04-10T10:49:51.528Z,25.80
2019-04-10T10:51:32.969Z,26.86
2019-04-10T10:53:14.340Z,27.58
2019-04-10T10:55:12.154Z,28.11
2019-04-10T10:56:53.045Z,28.86
2019-04-10T10:58:32.156Z,29.19
2019-04-10T11:00:25.269Z,29.82
2019-04-10T11:02:11.023Z,29.79
2019-04-10T11:03:58.348Z,29.69
2019-04-10T11:06:06.695Z,30.13
2019-04-10T11:08:00.736Z,30.21
2019-04-10T11:09:50.449Z,30.77
2019-04-10T11:11:36.981Z,29.66
2019-04-10T11:13:30.759Z,28.98
2019-04-10T11:15:20.186Z,30.08
2019-04-10T11:17:09.303Z,30.36
2019-04-10T11:18:55.455Z,30.01
2019-04-10T11:20:44.345Z,30.46
2019-04-10T11:22:31.555Z,30.30
2019-04-10T11:24:19.682Z,28.95
2019-04-10T11:26:08.481Z,29.36
2019-04-10T11:28:00.859Z,29.95
2019-04-10T11:29:53.250Z,30.36
2019-04-10T11:31:47.501Z,30.27
2019-04-10T11:33:33.042Z,30.49
2019-04-10T11:35:21.831Z,29.69
2019-04-10T11:38:55.368Z,29.19
2019-04-10T11:40:35.039Z,29.73
2019-04-10T11:42:12.482Z,30.51
2019-04-10T11:43:52.654Z,31.16
2019-04-10T11:45:40.648Z,32.26
2019-04-10T11:47:17.355Z,32.78
2019-04-10T11:48:56.788Z,33.19
2019-04-10T11:50:38.644Z,33.85
2019-04-10T11:52:31.190Z,33.90
2019-04-10T11:54:04.512Z,33.52
2019-04-10T11:55:49.516Z,33.59
2019-04-10T11:57:26.288Z,32.55
2019-04-10T11:59:07.025Z,32.85
2019-04-10T12:00:51.801Z,31.56
2019-04-10T15:57:04.597Z,18.42
2019-04-10T15:58:44.191Z,18.38
2019-04-10T16:00:23.240Z,18.67
2019-04-10T16:02:03.644Z,18.51
2019-04-10T16:03:47.452Z,18.40
2019-04-10T16:05:26.280Z,18.31
2019-04-10T16:07:06.239Z,18.30
2019-04-10T16:08:44.890Z,18.28
2019-04-10T16:10:29.381Z,18.27
2019-04-10T16:12:14.541Z,18.27
2019-04-10T16:13:59.117Z,18.25
2019-04-10T16:15:43.533Z,18.22
2019-04-10T16:17:24.013Z,18.20
2019-04-10T16:19:04.309Z,18.15
2019-04-10T16:20:45.209Z,18.13
2019-04-10T16:22:33.451Z,18.09
2019-04-10T16:24:18.700Z,18.05
2019-04-10T16:25:58.658Z,18.01
2019-04-10T16:32:34.903Z,17.85
2019-04-10T16:34:34.541Z,17.84
2019-04-10T16:36:57.644Z,17.80
2019-04-10T16:38:37.185Z,17.74
2019-04-10T16:42:39.917Z,17.60
2019-04-10T16:44:37.671Z,17.56
2019-04-10T16:46:15.900Z,17.51
2019-04-10T16:47:56.654Z,17.50
2019-04-10T16:49:37.888Z,17.47
2019-04-10T16:51:34.397Z,17.41
2019-04-10T16:53:16.066Z,17.40
2019-04-10T16:54:53.518Z,17.36
2019-04-10T16:56:38.009Z,17.33
2019-04-10T16:58:32.213Z,17.29
2019-04-10T17:00:21.049Z,17.24
2019-04-10T17:02:11.380Z,17.19
2019-04-10T17:03:52.369Z,17.12
2019-04-10T17:05:42.430Z,17.10
2019-04-10T17:07:39.102Z,17.08
2019-04-10T17:09:53.319Z,17.06
2019-04-10T17:11:37.214Z,17.04
2019-04-10T17:13:18.323Z,17.00
2019-04-10T17:15:41.887Z,17.01
2019-04-10T17:17:23.866Z,16.92
2019-04-10T17:19:07.731Z,16.88
2019-04-10T17:21:11.113Z,16.93
2019-04-10T17:23:17.065Z,16.88
2019-04-10T17:25:02.374Z,16.90
2019-04-10T17:27:08.621Z,16.89
2019-04-10T17:31:24.624Z,16.87
2019-04-10T17:33:06.862Z,16.83
2019-04-10T17:34:52.986Z,16.80
2019-04-10T17:40:40.699Z,16.81
2019-04-10T17:42:17.382Z,16.78
2019-04-10T17:44:18.114Z,16.72
2019-04-10T17:45:58.625Z,16.68
2019-04-10T17:47:38.941Z,16.64
2019-04-10T17:49:25.653Z,16.42
2019-04-10T17:51:08.083Z,16.39
2019-04-10T17:52:53.516Z,16.29
2019-04-10T17:54:42.993Z,16.20
2019-04-10T17:56:24.753Z,16.05
2019-04-10T17:58:27.505Z,15.97
2019-04-10T18:00:09.497Z,15.82
2019-04-10T18:01:59.052Z,15.74
2019-04-10T18:03:49.417Z,15.75
2019-04-10T18:05:22.639Z,15.83
2019-04-10T18:07:02.097Z,15.84
2019-04-10T18:08:40.988Z,15.77
2019-04-10T18:10:21.088Z,15.77
2019-04-10T18:12:01.179Z,15.73
2019-04-10T18:13:43.351Z,15.76
2019-04-10T18:15:22.280Z,15.67
2019-04-10T18:17:02.516Z,15.66
2019-04-10T18:18:44.228Z,15.68
2019-04-10T18:20:26.165Z,15.66
2019-04-10T18:22:05.415Z,15.61
2019-04-10T18:23:43.943Z,15.55
2019-04-10T18:25:22.180Z,15.52
2019-04-10T18:27:01.967Z,15.46
2019-04-10T18:28:41.481Z,15.41
2019-04-10T18:30:22.352Z,15.33
2019-04-10T18:32:03.313Z,15.28
2019-04-10T18:33:42.930Z,15.22
2019-04-10T18:35:23.339Z,15.18
2019-04-10T18:37:03.688Z,15.11
2019-04-10T18:38:43.882Z,15.07
2019-04-10T18:40:31.923Z,14.90
2019-04-10T18:42:11.854Z,14.82
2019-04-10T18:43:53.299Z,14.63
2019-04-10T18:45:35.396Z,14.43
2019-04-10T18:47:16.729Z,14.36
2019-04-10T18:48:55.127Z,14.32
2019-04-10T18:50:34.102Z,14.46
2019-04-10T18:52:17.167Z,14.56
2019-04-10T18:53:57.574Z,14.62
2019-04-10T18:55:35.152Z,14.60
2019-04-10T18:57:17.612Z,14.60
2019-04-10T18:59:04.646Z,14.65
2019-04-10T19:00:46.207Z,14.69
2019-04-10T19:02:33.180Z,14.71
2019-04-10T19:04:16.249Z,14.75
2019-04-10T19:06:12.027Z,14.76
2019-04-10T19:07:52.418Z,14.76
2019-04-10T19:09:32.536Z,14.76
2019-04-10T19:11:20.945Z,14.74
2019-04-10T19:12:53.474Z,14.72
2019-04-10T19:14:36.540Z,14.71
2019-04-10T19:16:14.068Z,14.69
2019-04-10T19:17:52.000Z,14.61
2019-04-10T19:19:32.472Z,14.63
2019-04-10T19:21:13.615Z,14.59
2019-04-10T19:22:52.855Z,14.59
2019-04-10T19:24:32.502Z,14.58
2019-04-10T19:26:13.782Z,14.58
2019-04-10T19:27:56.059Z,14.59
2019-04-10T19:29:35.555Z,14.58
2019-04-10T19:31:19.450Z,14.54
2019-04-10T19:32:55.931Z,14.55
2019-04-10T19:34:37.172Z,14.53
2019-04-10T19:36:17.506Z,14.52
2019-04-10T19:37:57.838Z,14.42
2019-04-10T19:39:38.287Z,14.31
2019-04-10T19:41:26.269Z,14.20
2019-04-10T19:42:57.772Z,14.06
2019-04-10T19:44:37.764Z,14.04
2019-04-10T19:46:17.488Z,14.13
2019-04-10T19:47:58.963Z,14.21
2019-04-10T19:49:36.994Z,14.24
2019-04-10T19:51:16.922Z,14.27
2019-04-10T19:52:57.565Z,14.37
2019-04-10T19:54:35.404Z,14.39
2019-04-10T19:56:14.145Z,14.39
2019-04-10T19:57:53.792Z,14.41
2019-04-10T19:59:33.455Z,14.47
2019-04-10T20:01:16.833Z,14.49
2019-04-10T20:02:57.333Z,14.53
2019-04-10T20:04:37.085Z,14.55
2019-04-10T20:06:16.186Z,14.50
2019-04-10T20:07:53.606Z,14.53
2019-04-10T20:09:32.679Z,14.53
2019-04-10T20:11:12.822Z,14.55
2019-04-10T20:12:50.936Z,14.49
2019-04-10T20:14:30.599Z,14.41
2019-04-10T20:16:11.127Z,14.37
2019-04-10T20:17:48.837Z,14.30
2019-04-10T20:19:28.692Z,14.19
2019-04-10T20:21:07.958Z,14.12
2019-04-10T20:22:46.358Z,14.11
2019-04-10T20:24:25.048Z,14.07
2019-04-10T20:26:03.330Z,14.03
2019-04-10T20:27:42.512Z,14.06
2019-04-10T20:29:23.894Z,14.06
2019-04-10T20:31:04.822Z,14.04
2019-04-10T20:32:44.488Z,14.07
2019-04-10T20:34:28.269Z,14.12
2019-04-10T20:36:08.977Z,14.17
2019-04-10T20:37:49.826Z,14.22
2019-04-10T20:39:31.535Z,14.31
2019-04-10T20:41:16.278Z,14.33
2019-04-10T20:42:56.913Z,14.38
2019-04-10T20:44:36.845Z,14.44
2019-04-10T20:46:20.190Z,14.46
2019-04-10T20:48:00.172Z,14.55
2019-04-10T20:49:40.584Z,14.64
2019-04-10T20:51:22.703Z,14.63
2019-04-10T20:53:04.907Z,14.65
2019-04-10T20:54:46.786Z,14.64
2019-04-10T20:56:28.769Z,14.59
2019-04-10T20:58:09.140Z,14.62
2019-04-10T20:59:49.008Z,14.64
2019-04-10T21:01:31.024Z,14.68
2019-04-10T21:03:13.515Z,14.65
2019-04-10T21:05:01.402Z,14.64
2019-04-10T21:06:41.979Z,14.60
2019-04-10T21:08:27.718Z,14.69
2019-04-10T21:10:08.744Z,14.62
2019-04-10T21:11:59.975Z,14.61
2019-04-10T21:13:34.067Z,14.61
2019-04-10T21:15:14.241Z,14.59
2019-04-10T21:16:56.024Z,14.65
2019-04-10T21:18:34.185Z,14.65
2019-04-10T21:20:13.694Z,14.63
2019-04-10T21:21:53.804Z,14.60
2019-04-10T21:23:31.776Z,14.60
2019-04-10T21:25:10.284Z,14.64
2019-04-10T21:26:50.721Z,14.62
2019-04-10T21:28:38.033Z,14.66
2019-04-10T21:30:33.978Z,14.58
2019-04-10T21:32:34.594Z,14.57
2019-04-10T21:34:22.026Z,14.49
2019-04-10T21:36:02.789Z,14.49
2019-04-10T21:37:42.424Z,14.41
2019-04-10T21:39:23.437Z,14.37
2019-04-10T21:41:09.506Z,14.39
2019-04-10T21:42:45.985Z,14.34
2019-04-10T21:44:26.622Z,14.33
2019-04-10T21:46:06.117Z,14.26
2019-04-10T21:47:48.074Z,14.26
2019-04-10T21:49:32.341Z,14.25
2019-04-10T21:51:13.341Z,14.18
2019-04-10T21:52:55.514Z,14.11
2019-04-10T21:54:47.976Z,14.11
2019-04-10T21:56:20.227Z,14.13
2019-04-10T21:57:59.777Z,14.16
2019-04-10T21:59:40.905Z,14.08
2019-04-10T22:01:21.964Z,14.08
2019-04-10T22:03:06.780Z,14.09
2019-04-10T22:04:48.123Z,14.04
2019-04-10T22:06:32.161Z,14.05
2019-04-10T22:08:14.917Z,14.02
2019-04-10T22:10:12.010Z,14.04
2019-04-10T22:11:57.296Z,14.07
2019-04-10T22:13:38.578Z,14.12
2019-04-10T22:15:31.352Z,14.11
2019-04-10T22:17:12.812Z,14.12
2019-04-10T22:18:54.562Z,14.12
2019-04-10T22:20:37.152Z,14.13
2019-04-10T22:22:20.297Z,14.14
2019-04-10T22:24:00.983Z,14.16
2019-04-10T22:25:41.614Z,14.15
2019-04-10T22:27:23.356Z,14.18
2019-04-10T22:29:05.600Z,14.23
2019-04-10T22:30:45.516Z,14.20
2019-04-10T22:32:29.101Z,14.18
2019-04-10T22:34:10.171Z,14.18
2019-04-10T22:35:52.473Z,14.19
2019-04-10T22:37:31.918Z,14.11
2019-04-10T22:39:14.552Z,14.11
2019-04-10T22:40:53.937Z,14.10
2019-04-10T22:42:42.522Z,14.06
2019-04-10T22:44:17.607Z,14.15
2019-04-10T22:45:56.926Z,14.09
2019-04-10T22:47:36.767Z,14.04
2019-04-10T22:49:16.514Z,14.01
2019-04-10T22:50:54.174Z,14.01
2019-04-10T22:52:35.019Z,13.96
2019-04-10T22:54:17.938Z,13.93
2019-04-10T22:55:59.101Z,13.97
2019-04-10T22:57:42.113Z,14.02
2019-04-10T22:59:25.995Z,13.98
2019-04-10T23:01:06.888Z,14.00
2019-04-10T23:02:46.829Z,13.99
2019-04-10T23:04:26.448Z,13.94
2019-04-10T23:06:07.042Z,13.91
2019-04-10T23:07:49.782Z,13.95
2019-04-10T23:09:30.611Z,13.98
2019-04-10T23:11:11.042Z,13.98
2019-04-10T23:12:58.925Z,13.88
2019-04-10T23:14:31.161Z,13.85
2019-04-10T23:16:15.403Z,13.88
2019-04-10T23:17:52.767Z,13.89
2019-04-10T23:19:32.109Z,13.83
2019-04-10T23:21:14.412Z,13.83
2019-04-10T23:22:54.742Z,13.81
2019-04-10T23:24:33.752Z,13.76
2019-04-10T23:26:13.136Z,13.78
2019-04-10T23:27:55.193Z,13.74
2019-04-10T23:29:32.635Z,13.75
2019-04-10T23:31:13.359Z,13.76
2019-04-10T23:32:51.946Z,13.70
2019-04-10T23:34:30.581Z,13.67
2019-04-10T23:36:09.766Z,13.63
2019-04-10T23:37:48.945Z,13.63
2019-04-10T23:39:28.228Z,13.63
2019-04-10T23:41:10.208Z,13.62
2019-04-10T23:43:02.681Z,13.65
2019-04-10T23:44:33.141Z,13.61
2019-04-10T23:46:14.826Z,13.60
2019-04-10T23:47:53.694Z,13.57
2019-04-10T23:49:35.268Z,13.54
2019-04-10T23:51:16.885Z,13.54
2019-04-10T23:52:56.321Z,13.57
2019-04-10T23:54:37.500Z,13.55
2019-04-10T23:56:17.702Z,13.54
2019-04-10T23:57:57.945Z,13.54
2019-04-10T23:59:37.152Z,13.52
